Du har inga inställningar för hoppväder.nu

Hoppväder.nu

Senast uppdaterat 06:54

UTC-tid

2020-01-29 kl. 05:54


Sol och måne

Solen går upp 8:13 och går ner 15:54 (beräknade cirkatider)
Nästa fullmåne blir om 11 dagar (2020-02-09)

METAR

ESSA (Arlanda, Stockholm)
(34 minuter sedan)
ESSA 290520Z 11007KT 9999 DZ OVC006 02/02 Q0988 RWY 01L WET OR WATER PATCHES 51-100 PCT BA GOOD RWY 08 WET OR WATER PATCHES 51-100 PCT BA GOOD RWY 01R WET OR WATER PATCHES 51-100 PCT BA GOOD TEMPO 4000 DZRA BKN004=



ESSD (Borlänge)
(34 minuter sedan)
ESSD 290520Z AUTO 09005KT 3900 -SN VV005 00/00 Q0987=



EFMA (Mariehamn)
(34 minuter sedan)
EFMA 290520Z AUTO 12010KT 9999 -RA OVC006 02/01 Q0991=



ESOW (Västerås)
(34 minuter sedan)
ESOW 290520Z AUTO 10006KT 070V140 9999 SCT006/// OVC011/// 03/01 Q0988=






TAF

ESSA (Arlanda, Stockholm)
(24 minuter sedan)
ESSA 290530Z 2906/3006 12009KT 9999 -DZ OVC006 TEMPO 2906/2908 1000 DZ BR BKN004 BECMG 2908/2910 SCT006 BKN015 TEMPO 2910/2920 3000 RA BR BKN007 PROB40 2920/2923 2000 BR BECMG 2923/3001 2000 BR BKN005 TEMPO 3001/3006 0300 FG VV002=



ESSD (Borlänge)
ESSD



EFMA (Mariehamn)
(197 minuter sedan)
EFMA 290237Z 2903/2912 13012KT 9999 -RA BKN006 PROB30 2903/2912 3500 DZ=



ESOW (Västerås)
ESOW





Kodnycklar till TAF och METAR






LHP

(Gryttjom är område F2c i Norra delen)







Spotting

Hur fungerar spotthjälpen och Vindkartan?

Markvind är ca 0 m/s.
Vind på 600 m ca 0 m/s.
Vind på 1500 m ca 0 m/s.
Vind på 3000 m ca 0 m/s.
SE-GEE flyger ca 45 m/s över marken på finalen.
Du driver ca 0 m bakåt i frifall. (0 m)
Lämplig spot är 6 sekunder eller 272 m innan gropen.
(-6s eller -272 m)
För små grupper eller ensamhoppare bör man vänta 3-5 sekunder mellan grupperna.
För större grupper bör man vänta 7-8 sekunder mellan grupperna.


Vindkartan

Senast uppdaterad 06:54




All data kommer från LFV.se